createdAt,value
2018-09-19T00:00:08.148Z,0.00
2018-09-19T00:01:08.140Z,0.00
2018-09-19T00:02:08.128Z,0.00
2018-09-19T00:03:08.124Z,0.00
2018-09-19T00:04:08.121Z,0.00
2018-09-19T00:05:08.116Z,0.00
2018-09-19T00:06:08.099Z,0.00
2018-09-19T00:07:08.092Z,0.00
2018-09-19T00:08:08.083Z,0.00
2018-09-19T00:09:08.083Z,0.00
2018-09-19T00:10:08.067Z,0.00
2018-09-19T00:11:08.061Z,0.00
2018-09-19T00:12:08.084Z,0.00
2018-09-19T00:13:08.043Z,0.00
2018-09-19T00:14:08.040Z,0.00
2018-09-19T00:15:08.034Z,0.00
2018-09-19T00:16:08.026Z,0.00
2018-09-19T00:17:08.012Z,0.00
2018-09-19T00:18:08.009Z,0.00
2018-09-19T00:19:08.052Z,0.00
2018-09-19T00:20:08.046Z,0.00
2018-09-19T00:21:07.983Z,0.00
2018-09-19T00:22:07.976Z,0.00
2018-09-19T00:23:07.969Z,0.00
2018-09-19T00:24:07.962Z,0.00
2018-09-19T00:25:07.955Z,0.00
2018-09-19T00:26:07.944Z,0.00
2018-09-19T00:27:07.935Z,0.00
2018-09-19T00:28:07.930Z,0.00
2018-09-19T00:29:07.926Z,0.00
2018-09-19T00:30:07.915Z,0.00
2018-09-19T00:31:07.909Z,0.00
2018-09-19T00:32:07.912Z,0.00
2018-09-19T00:33:07.892Z,0.00
2018-09-19T00:34:07.882Z,0.00
2018-09-19T00:35:07.875Z,0.00
2018-09-19T00:36:07.866Z,0.00
2018-09-19T00:37:07.865Z,0.00
2018-09-19T00:38:07.852Z,0.00
2018-09-19T00:39:07.849Z,0.00
2018-09-19T00:40:07.838Z,0.00
2018-09-19T00:41:07.830Z,0.00
2018-09-19T00:42:07.820Z,0.00
2018-09-19T00:43:07.816Z,0.00
2018-09-19T00:44:07.813Z,0.00
2018-09-19T00:45:07.809Z,0.00
2018-09-19T00:46:07.791Z,0.00
2018-09-19T00:47:07.783Z,0.00
2018-09-19T00:48:07.800Z,0.00
2018-09-19T00:49:07.766Z,0.00
2018-09-19T00:50:07.793Z,0.00
2018-09-19T00:51:07.755Z,0.00
2018-09-19T00:52:07.747Z,0.00
2018-09-19T00:53:07.734Z,0.00
2018-09-19T00:54:07.730Z,0.00
2018-09-19T00:55:07.729Z,0.00
2018-09-19T00:56:07.719Z,0.00
2018-09-19T00:57:07.710Z,0.00
2018-09-19T00:58:07.698Z,0.00
2018-09-19T00:59:07.687Z,0.00
2018-09-19T01:00:07.683Z,0.00
2018-09-19T01:01:07.702Z,0.00
2018-09-19T01:02:07.686Z,0.00
2018-09-19T01:03:07.657Z,0.00
2018-09-19T01:04:07.656Z,0.00
2018-09-19T01:05:07.645Z,0.00
2018-09-19T01:06:07.639Z,0.00
2018-09-19T01:07:07.637Z,0.00
2018-09-19T01:08:07.622Z,0.00
2018-09-19T01:09:07.611Z,0.00
2018-09-19T01:10:07.604Z,0.00
2018-09-19T01:11:07.594Z,0.00
2018-09-19T01:12:07.588Z,0.00
2018-09-19T01:13:07.584Z,0.00
2018-09-19T01:14:07.575Z,0.00
2018-09-19T01:15:07.574Z,0.00
2018-09-19T01:16:07.557Z,0.00
2018-09-19T01:17:07.550Z,0.00
2018-09-19T01:18:07.545Z,0.00
2018-09-19T01:19:07.532Z,0.00
2018-09-19T01:20:07.526Z,0.00
2018-09-19T01:21:07.522Z,0.00
2018-09-19T01:22:07.509Z,0.00
2018-09-19T01:23:07.506Z,0.00
2018-09-19T01:24:07.496Z,0.00
2018-09-19T01:25:07.490Z,0.00
2018-09-19T01:26:07.478Z,0.00
2018-09-19T01:27:07.473Z,0.00
2018-09-19T01:28:07.462Z,0.00
2018-09-19T01:29:07.459Z,0.00
2018-09-19T01:30:07.451Z,0.00
2018-09-19T01:31:07.440Z,0.00
2018-09-19T01:32:07.429Z,0.00
2018-09-19T01:33:07.424Z,0.00
2018-09-19T01:34:07.417Z,0.00
2018-09-19T01:35:07.407Z,0.00
2018-09-19T01:36:07.402Z,0.00
2018-09-19T01:37:07.395Z,0.00
2018-09-19T01:38:07.385Z,0.00
2018-09-19T01:39:07.375Z,0.00
2018-09-19T01:40:07.373Z,0.00
2018-09-19T01:41:07.364Z,0.00
2018-09-19T01:42:07.358Z,0.00
2018-09-19T01:43:07.348Z,0.00
2018-09-19T01:44:07.335Z,0.00
2018-09-19T01:45:07.332Z,0.00
2018-09-19T01:46:07.326Z,0.00
2018-09-19T01:47:07.315Z,0.00
2018-09-19T01:48:07.313Z,0.00
2018-09-19T01:49:07.301Z,0.00
2018-09-19T01:50:07.295Z,0.00
2018-09-19T01:51:07.288Z,0.00
2018-09-19T01:52:07.275Z,0.00
2018-09-19T01:53:07.273Z,0.00
2018-09-19T01:54:07.265Z,0.00
2018-09-19T01:55:07.253Z,0.00
2018-09-19T01:56:07.250Z,0.00
2018-09-19T01:57:07.237Z,0.00
2018-09-19T01:58:07.232Z,0.00
2018-09-19T01:59:07.250Z,0.00
2018-09-19T02:00:07.214Z,0.00
2018-09-19T02:01:07.214Z,0.00
2018-09-19T02:02:07.199Z,0.00
2018-09-19T02:03:07.194Z,0.00
2018-09-19T02:04:07.185Z,0.00
2018-09-19T02:05:07.182Z,0.00
2018-09-19T02:06:07.170Z,0.00
2018-09-19T02:07:07.160Z,0.00
2018-09-19T02:08:07.152Z,0.00
2018-09-19T02:09:07.145Z,0.00
2018-09-19T02:10:07.136Z,0.00
2018-09-19T02:11:07.131Z,0.00
2018-09-19T02:12:07.122Z,0.00
2018-09-19T02:13:07.114Z,0.00
2018-09-19T02:14:07.108Z,0.00
2018-09-19T02:15:07.099Z,0.00
2018-09-19T02:16:07.137Z,0.00
2018-09-19T02:17:07.082Z,0.00
2018-09-19T02:18:07.077Z,0.00
2018-09-19T02:19:07.066Z,0.00
2018-09-19T02:20:07.065Z,0.00
2018-09-19T02:21:07.049Z,0.00
2018-09-19T02:22:07.052Z,0.00
2018-09-19T02:23:07.044Z,0.00
2018-09-19T02:24:07.033Z,0.00
2018-09-19T02:25:07.019Z,0.00
2018-09-19T02:26:07.013Z,0.00
2018-09-19T02:27:07.005Z,0.00
2018-09-19T02:28:07.002Z,0.00
2018-09-19T02:29:06.989Z,0.00
2018-09-19T02:30:06.996Z,0.00
2018-09-19T02:31:06.986Z,0.00
2018-09-19T02:32:06.972Z,0.00
2018-09-19T02:33:06.965Z,0.00
2018-09-19T02:34:06.953Z,0.00
2018-09-19T02:35:06.940Z,0.00
2018-09-19T02:36:06.939Z,0.00
2018-09-19T02:37:06.925Z,0.00
2018-09-19T02:38:06.918Z,0.00
2018-09-19T02:39:06.908Z,0.00
2018-09-19T02:40:06.901Z,0.00
2018-09-19T02:41:06.894Z,0.00
2018-09-19T02:42:06.889Z,0.00
2018-09-19T02:43:06.877Z,0.00
2018-09-19T02:44:06.876Z,0.00
2018-09-19T02:45:06.868Z,0.00
2018-09-19T02:46:06.853Z,0.00
2018-09-19T02:47:06.855Z,0.00
2018-09-19T02:48:06.843Z,0.00
2018-09-19T02:49:06.835Z,0.00
2018-09-19T02:50:06.828Z,0.00
2018-09-19T02:51:06.837Z,0.00
2018-09-19T02:52:06.806Z,0.00
2018-09-19T02:53:06.803Z,0.00
2018-09-19T02:54:06.792Z,0.00
2018-09-19T02:55:06.784Z,0.00
2018-09-19T02:56:06.782Z,0.00
2018-09-19T02:57:06.769Z,0.00
2018-09-19T02:58:06.765Z,0.00
2018-09-19T02:59:06.759Z,0.00
2018-09-19T03:00:06.750Z,0.00
2018-09-19T03:01:06.742Z,0.00
2018-09-19T03:02:06.741Z,0.00
2018-09-19T03:03:06.721Z,0.00
2018-09-19T03:04:06.715Z,0.00
2018-09-19T03:05:06.715Z,0.00
2018-09-19T03:06:06.700Z,0.00
2018-09-19T03:07:06.721Z,0.00
2018-09-19T03:08:06.687Z,0.00
2018-09-19T03:09:06.675Z,0.00
2018-09-19T03:10:06.662Z,0.00
2018-09-19T03:11:06.666Z,0.00
2018-09-19T03:12:06.653Z,0.00
2018-09-19T03:13:06.647Z,0.00
2018-09-19T03:14:06.636Z,0.00
2018-09-19T03:15:06.634Z,0.00
2018-09-19T03:16:06.627Z,0.00
2018-09-19T03:17:06.647Z,0.00
2018-09-19T03:18:06.607Z,0.00
2018-09-19T03:19:06.603Z,0.00
2018-09-19T03:20:06.590Z,0.00
2018-09-19T03:21:06.594Z,0.00
2018-09-19T03:22:06.587Z,0.00
2018-09-19T03:23:06.559Z,0.00
2018-09-19T03:24:06.558Z,0.00
2018-09-19T03:25:06.551Z,0.00
2018-09-19T03:26:06.545Z,0.00
2018-09-19T03:27:06.536Z,0.00
2018-09-19T03:28:06.533Z,0.00
2018-09-19T03:29:06.520Z,0.00
2018-09-19T03:30:06.519Z,0.00
2018-09-19T03:31:06.504Z,0.00
2018-09-19T03:32:06.501Z,0.00
2018-09-19T03:33:06.495Z,0.00
2018-09-19T03:34:06.478Z,0.00
2018-09-19T03:35:06.473Z,0.00
2018-09-19T03:36:06.462Z,0.00
2018-09-19T03:37:06.459Z,0.00
2018-09-19T03:38:06.454Z,0.00
2018-09-19T03:39:06.440Z,0.00
2018-09-19T03:40:06.432Z,0.00
2018-09-19T03:41:06.425Z,0.00
2018-09-19T03:42:06.418Z,0.00
2018-09-19T03:43:06.411Z,0.00
2018-09-19T03:44:06.410Z,0.00
2018-09-19T03:45:06.398Z,0.00
2018-09-19T03:46:06.388Z,0.00
2018-09-19T03:47:06.379Z,0.00
2018-09-19T03:48:06.375Z,0.00
2018-09-19T03:49:06.364Z,0.00
2018-09-19T03:50:06.360Z,0.00
2018-09-19T03:51:06.347Z,4.00
2018-09-19T03:52:06.340Z,0.00
2018-09-19T03:53:06.334Z,0.00
2018-09-19T03:54:06.330Z,0.00
2018-09-19T03:55:06.315Z,0.00
2018-09-19T03:56:06.311Z,0.00
2018-09-19T03:57:06.303Z,0.00
2018-09-19T03:58:06.342Z,0.00
2018-09-19T03:59:06.283Z,0.00
2018-09-19T04:00:06.276Z,0.00
2018-09-19T04:01:06.270Z,0.00
2018-09-19T04:02:06.257Z,0.00
2018-09-19T04:03:06.255Z,0.00
2018-09-19T04:04:06.247Z,0.00
2018-09-19T04:05:06.237Z,0.00
2018-09-19T04:06:06.229Z,0.00
2018-09-19T04:07:06.226Z,0.00
2018-09-19T04:08:06.211Z,0.00
2018-09-19T04:09:06.212Z,0.00
2018-09-19T04:10:06.198Z,0.00
2018-09-19T04:11:06.208Z,0.00
2018-09-19T04:12:06.181Z,0.00
2018-09-19T04:13:06.177Z,0.00
2018-09-19T04:14:06.167Z,0.00
2018-09-19T04:15:06.165Z,0.00
2018-09-19T04:16:06.152Z,0.00
2018-09-19T04:17:06.142Z,0.00
2018-09-19T04:18:06.136Z,0.00
2018-09-19T04:19:06.129Z,0.00
2018-09-19T04:20:06.119Z,0.00
2018-09-19T04:21:06.110Z,0.00
2018-09-19T04:22:06.104Z,0.00
2018-09-19T04:23:06.104Z,0.00
2018-09-19T04:24:06.100Z,0.00
2018-09-19T04:25:06.087Z,0.00
2018-09-19T04:26:06.072Z,0.00
2018-09-19T04:27:06.066Z,0.00
2018-09-19T04:28:06.057Z,0.00
2018-09-19T04:29:06.055Z,0.00
2018-09-19T04:30:06.040Z,0.00
2018-09-19T04:31:06.036Z,0.00
2018-09-19T04:32:06.079Z,0.00
2018-09-19T04:33:06.016Z,0.00
2018-09-19T04:34:06.010Z,0.00
2018-09-19T04:35:06.000Z,0.00
2018-09-19T04:36:05.990Z,0.00
2018-09-19T04:37:05.986Z,0.00
2018-09-19T04:38:05.974Z,0.00
2018-09-19T04:39:05.978Z,0.00
2018-09-19T04:40:05.960Z,0.00
2018-09-19T04:41:05.953Z,0.00
2018-09-19T04:42:05.943Z,0.00
2018-09-19T04:43:05.936Z,0.00
2018-09-19T04:44:05.933Z,0.00
2018-09-19T04:45:06.023Z,0.00
2018-09-19T04:46:05.920Z,0.00
2018-09-19T04:47:05.912Z,0.00
2018-09-19T04:48:05.901Z,0.00
2018-09-19T04:49:05.891Z,0.00
2018-09-19T04:50:05.877Z,0.00
2018-09-19T04:51:05.875Z,0.00
2018-09-19T04:52:05.877Z,0.00
2018-09-19T04:53:05.860Z,0.00
2018-09-19T04:54:05.851Z,0.00
2018-09-19T04:55:05.843Z,0.00
2018-09-19T04:56:05.838Z,0.00
2018-09-19T04:57:05.828Z,0.00
2018-09-19T04:58:05.832Z,0.00
2018-09-19T04:59:05.824Z,0.00
2018-09-19T05:00:05.803Z,0.00
2018-09-19T05:01:05.796Z,0.00
2018-09-19T05:02:05.788Z,0.00
2018-09-19T05:03:05.785Z,0.00
2018-09-19T05:04:05.770Z,0.00
2018-09-19T05:05:05.766Z,0.00
2018-09-19T05:06:05.757Z,0.00
2018-09-19T05:07:05.778Z,0.00
2018-09-19T05:08:05.739Z,4.00
2018-09-19T05:09:05.735Z,4.00
2018-09-19T05:10:05.729Z,4.00
2018-09-19T05:11:05.714Z,0.00
2018-09-19T05:12:05.708Z,0.00
2018-09-19T05:13:05.702Z,4.00
2018-09-19T05:14:05.702Z,4.00
2018-09-19T05:15:05.705Z,0.00
2018-09-19T05:16:05.679Z,4.00
2018-09-19T05:17:05.667Z,4.00
2018-09-19T05:18:05.659Z,4.00
2018-09-19T05:19:05.654Z,4.00
2018-09-19T05:20:05.648Z,8.00
2018-09-19T05:21:05.643Z,4.00
2018-09-19T05:22:05.632Z,4.00
2018-09-19T05:23:05.625Z,4.00
2018-09-19T05:24:05.618Z,4.00
2018-09-19T05:25:05.608Z,8.00
2018-09-19T05:26:05.599Z,8.00
2018-09-19T05:27:05.594Z,8.00
2018-09-19T05:28:05.586Z,4.00
2018-09-19T05:29:05.584Z,8.00
2018-09-19T05:30:05.570Z,8.00
2018-09-19T05:31:05.560Z,8.00
2018-09-19T05:32:05.551Z,12.00
2018-09-19T05:33:05.544Z,8.00
2018-09-19T05:34:05.539Z,8.00
2018-09-19T05:35:05.529Z,12.00
2018-09-19T05:36:05.524Z,12.00
2018-09-19T05:37:05.513Z,12.00
2018-09-19T05:38:05.508Z,8.00
2018-09-19T05:39:05.492Z,12.00
2018-09-19T05:40:05.499Z,12.00
2018-09-19T05:41:05.482Z,12.00
2018-09-19T05:42:05.475Z,12.00
2018-09-19T05:43:05.465Z,16.00
2018-09-19T05:44:05.460Z,16.00
2018-09-19T05:45:05.451Z,12.00
2018-09-19T05:46:05.440Z,12.00
2018-09-19T05:47:05.437Z,16.00
2018-09-19T05:48:05.423Z,16.00
2018-09-19T05:49:05.419Z,16.00
2018-09-19T05:50:05.412Z,12.00
2018-09-19T05:51:05.402Z,16.00
2018-09-19T05:52:05.397Z,16.00
2018-09-19T05:53:05.390Z,16.00
2018-09-19T05:54:05.377Z,20.00
2018-09-19T05:55:05.369Z,16.00
2018-09-19T05:56:05.363Z,16.00
2018-09-19T05:57:05.356Z,20.00
2018-09-19T05:58:05.347Z,20.00
2018-09-19T05:59:05.336Z,20.00
2018-09-19T06:00:05.339Z,20.00
2018-09-19T06:01:05.327Z,20.00
2018-09-19T06:02:05.317Z,20.00
2018-09-19T06:03:05.311Z,20.00
2018-09-19T06:04:05.298Z,24.00
2018-09-19T06:05:05.357Z,24.00
2018-09-19T06:06:05.290Z,24.00
2018-09-19T06:07:05.276Z,24.00
2018-09-19T06:08:05.269Z,24.00
2018-09-19T06:09:05.258Z,24.00
2018-09-19T06:10:05.253Z,24.00
2018-09-19T06:11:05.251Z,28.00
2018-09-19T06:12:05.239Z,28.00
2018-09-19T06:13:05.228Z,28.00
2018-09-19T06:14:05.221Z,28.00
2018-09-19T06:15:05.212Z,28.00
2018-09-19T06:16:05.201Z,28.00
2018-09-19T06:17:05.191Z,32.00
2018-09-19T06:18:05.197Z,28.00
2018-09-19T06:19:05.199Z,28.00
2018-09-19T06:20:05.173Z,32.00
2018-09-19T06:21:05.165Z,32.00
2018-09-19T06:22:05.159Z,32.00
2018-09-19T06:23:05.148Z,32.00
2018-09-19T06:24:05.148Z,32.00
2018-09-19T06:25:05.139Z,32.00
2018-09-19T06:26:05.122Z,32.00
2018-09-19T06:27:05.188Z,36.00
2018-09-19T06:28:05.117Z,36.00
2018-09-19T06:29:05.102Z,32.00
2018-09-19T06:30:05.098Z,36.00
2018-09-19T06:31:05.099Z,36.00
2018-09-19T06:32:05.079Z,36.00
2018-09-19T06:33:05.201Z,36.00
2018-09-19T06:34:05.062Z,36.00
2018-09-19T06:35:05.055Z,36.00
2018-09-19T06:36:05.049Z,36.00
2018-09-19T06:37:05.104Z,36.00
2018-09-19T06:38:05.038Z,40.00
2018-09-19T06:39:05.045Z,40.00
2018-09-19T06:40:05.077Z,44.00
2018-09-19T06:41:05.201Z,44.00
2018-09-19T06:42:05.003Z,40.00
2018-09-19T06:43:04.997Z,44.00
2018-09-19T06:44:04.981Z,48.00
2018-09-19T06:45:04.981Z,48.00
2018-09-19T06:46:04.968Z,44.00
2018-09-19T06:47:04.965Z,44.00
2018-09-19T06:48:04.954Z,52.00
2018-09-19T06:49:04.968Z,52.00
2018-09-19T06:50:04.941Z,52.00
2018-09-19T06:51:04.928Z,52.00
2018-09-19T06:52:05.038Z,56.00
2018-09-19T06:53:04.920Z,56.00
2018-09-19T06:54:04.912Z,56.00
2018-09-19T06:55:04.899Z,64.00
2018-09-19T06:56:04.892Z,64.00
2018-09-19T06:57:04.883Z,68.00
2018-09-19T06:58:04.874Z,68.00
2018-09-19T06:59:04.871Z,68.00
2018-09-19T07:00:04.863Z,72.00
2018-09-19T07:01:04.852Z,76.00
2018-09-19T07:02:04.844Z,76.00
2018-09-19T07:03:04.841Z,80.00
2018-09-19T07:04:04.829Z,80.00
2018-09-19T07:05:04.825Z,84.00
2018-09-19T07:06:04.814Z,84.00
2018-09-19T07:07:04.809Z,84.00
2018-09-19T07:08:04.805Z,88.00
2018-09-19T07:09:04.795Z,88.00
2018-09-19T07:10:04.788Z,92.00
2018-09-19T07:11:04.772Z,92.00
2018-09-19T07:12:04.764Z,96.00
2018-09-19T07:13:04.766Z,96.00
2018-09-19T07:14:04.763Z,96.00
2018-09-19T07:15:04.744Z,100.00
2018-09-19T07:16:04.735Z,100.00
2018-09-19T07:17:04.728Z,104.00
2018-09-19T07:18:04.717Z,104.00
2018-09-19T07:19:04.764Z,104.00
2018-09-19T07:20:04.712Z,108.00
2018-09-19T07:21:04.702Z,108.00
2018-09-19T07:22:04.682Z,108.00
2018-09-19T07:23:04.676Z,108.00
2018-09-19T07:24:04.669Z,112.00
2018-09-19T07:25:04.686Z,112.00
2018-09-19T07:26:04.654Z,112.00
2018-09-19T07:27:04.656Z,112.00
2018-09-19T07:28:04.641Z,116.00
2018-09-19T07:29:04.633Z,120.00
2018-09-19T07:30:04.622Z,120.00
2018-09-19T07:31:04.632Z,124.00
2018-09-19T07:32:04.615Z,120.00
2018-09-19T07:33:04.604Z,124.00
2018-09-19T07:34:04.592Z,128.00
2018-09-19T07:35:04.634Z,128.00
2018-09-19T07:36:04.575Z,128.00
2018-09-19T07:37:04.570Z,128.00
2018-09-19T07:38:04.563Z,132.00
2018-09-19T07:39:04.568Z,136.00
2018-09-19T07:40:04.611Z,136.00
2018-09-19T07:41:04.538Z,140.00
2018-09-19T07:42:04.530Z,136.00
2018-09-19T07:43:04.517Z,140.00
2018-09-19T07:44:04.520Z,140.00
2018-09-19T07:45:04.508Z,144.00
2018-09-19T07:46:04.499Z,144.00
2018-09-19T07:47:04.492Z,144.00
2018-09-19T07:48:04.482Z,148.00
2018-09-19T07:49:04.477Z,152.00
2018-09-19T07:50:04.473Z,152.00
2018-09-19T07:51:04.462Z,152.00
2018-09-19T07:52:04.454Z,152.00
2018-09-19T07:53:04.448Z,156.00
2018-09-19T07:54:04.431Z,160.00
2018-09-19T07:55:04.497Z,160.00
2018-09-19T07:56:04.421Z,164.00
2018-09-19T07:57:04.420Z,164.00
2018-09-19T07:58:04.405Z,164.00
2018-09-19T07:59:04.398Z,168.00
2018-09-19T08:00:04.388Z,168.00
2018-09-19T08:01:04.499Z,168.00
2018-09-19T08:02:04.378Z,168.00
2018-09-19T08:03:04.368Z,172.00
2018-09-19T08:04:04.368Z,176.00
2018-09-19T08:05:04.349Z,172.00
2018-09-19T08:06:04.344Z,172.00
2018-09-19T08:07:04.334Z,172.00
2018-09-19T08:08:04.334Z,176.00
2018-09-19T08:09:04.359Z,176.00
2018-09-19T08:10:04.311Z,176.00
2018-09-19T08:11:04.305Z,176.00
2018-09-19T08:12:04.298Z,176.00
2018-09-19T08:13:04.289Z,180.00
2018-09-19T08:14:04.279Z,176.00
2018-09-19T08:15:04.273Z,180.00
2018-09-19T08:16:04.276Z,180.00
2018-09-19T08:17:04.261Z,180.00
2018-09-19T08:18:04.252Z,180.00
2018-09-19T08:19:04.241Z,184.00
2018-09-19T08:20:04.232Z,184.00
2018-09-19T08:21:04.229Z,180.00
2018-09-19T08:22:04.222Z,180.00
2018-09-19T08:23:04.227Z,180.00
2018-09-19T08:24:04.201Z,180.00
2018-09-19T08:25:04.197Z,180.00
2018-09-19T08:26:04.188Z,180.00
2018-09-19T08:27:04.179Z,180.00
2018-09-19T08:28:04.176Z,184.00
2018-09-19T08:29:04.165Z,184.00
2018-09-19T08:30:04.158Z,184.00
2018-09-19T08:31:04.146Z,184.00
2018-09-19T08:32:04.142Z,184.00
2018-09-19T08:33:04.131Z,184.00
2018-09-19T08:34:04.128Z,184.00
2018-09-19T08:35:04.116Z,184.00
2018-09-19T08:36:04.106Z,184.00
2018-09-19T08:37:04.101Z,180.00
2018-09-19T08:38:04.092Z,180.00
2018-09-19T08:39:04.087Z,180.00
2018-09-19T08:40:04.078Z,180.00
2018-09-19T08:41:04.078Z,176.00
2018-09-19T08:42:04.066Z,180.00
2018-09-19T08:43:04.056Z,180.00
2018-09-19T08:44:04.050Z,176.00
2018-09-19T08:45:04.037Z,176.00
2018-09-19T08:46:04.386Z,176.00
2018-09-19T08:47:04.035Z,176.00
2018-09-19T08:48:04.047Z,176.00
2018-09-19T08:49:04.011Z,176.00
2018-09-19T08:50:04.005Z,176.00
2018-09-19T08:51:03.989Z,176.00
2018-09-19T08:52:03.985Z,176.00
2018-09-19T08:53:04.488Z,172.00
2018-09-19T08:54:04.299Z,176.00
2018-09-19T08:55:04.638Z,176.00
2018-09-19T08:56:04.468Z,172.00
2018-09-19T08:57:04.460Z,176.00
2018-09-19T08:58:04.581Z,176.00
2018-09-19T08:59:04.333Z,172.00
2018-09-19T09:00:04.651Z,172.00
2018-09-19T09:01:04.479Z,168.00
2018-09-19T09:02:04.479Z,172.00
2018-09-19T09:03:04.696Z,172.00
2018-09-19T09:04:04.496Z,172.00
2018-09-19T09:05:04.506Z,172.00
2018-09-19T09:06:04.452Z,172.00
2018-09-19T09:07:04.438Z,172.00
2018-09-19T09:08:04.278Z,172.00
2018-09-19T09:09:04.631Z,172.00
2018-09-19T09:10:04.253Z,168.00
2018-09-19T09:11:04.495Z,172.00
2018-09-19T09:12:04.614Z,168.00
2018-09-19T09:13:04.583Z,168.00
2018-09-19T09:14:04.261Z,164.00
2018-09-19T09:15:04.544Z,168.00
2018-09-19T09:16:04.654Z,168.00
2018-09-19T09:17:04.470Z,164.00
2018-09-19T09:18:04.280Z,168.00
2018-09-19T09:19:04.257Z,168.00
2018-09-19T09:20:04.897Z,168.00
2018-09-19T09:21:04.323Z,164.00
2018-09-19T09:22:04.221Z,160.00
2018-09-19T09:23:04.511Z,164.00
2018-09-19T09:26:58.252Z,160.00
2018-09-19T09:27:37.951Z,156.00
2018-09-19T09:31:19.520Z,152.00
2018-09-19T09:32:19.059Z,156.00
2018-09-19T09:33:18.991Z,152.00
2018-09-19T09:34:18.687Z,152.00
2018-09-19T09:35:18.552Z,152.00
2018-09-19T09:36:18.482Z,152.00
2018-09-19T09:37:18.641Z,152.00
2018-09-19T09:38:18.622Z,148.00
2018-09-19T09:39:18.618Z,144.00
2018-09-19T09:40:18.388Z,148.00
2018-09-19T09:41:18.466Z,144.00
2018-09-19T09:42:18.763Z,144.00
2018-09-19T09:43:18.350Z,144.00
2018-09-19T09:44:18.550Z,144.00
2018-09-19T09:45:18.617Z,144.00
2018-09-19T09:46:18.264Z,140.00
2018-09-19T09:47:18.584Z,140.00
2018-09-19T09:48:19.239Z,140.00
2018-09-19T09:49:18.370Z,136.00
2018-09-19T09:50:18.379Z,136.00
2018-09-19T09:51:18.428Z,136.00
2018-09-19T09:52:18.640Z,132.00
2018-09-19T09:53:18.380Z,132.00
2018-09-19T09:54:18.254Z,132.00
2018-09-19T09:55:18.691Z,132.00
2018-09-19T09:56:18.172Z,128.00
2018-09-19T09:57:18.741Z,132.00
2018-09-19T09:58:18.269Z,132.00
2018-09-19T09:59:18.494Z,132.00
2018-09-19T10:00:18.488Z,128.00
2018-09-19T10:01:18.385Z,128.00
2018-09-19T10:02:18.342Z,128.00
2018-09-19T10:03:18.426Z,124.00
2018-09-19T10:04:18.269Z,124.00
2018-09-19T10:05:18.330Z,124.00
2018-09-19T10:06:18.538Z,120.00
2018-09-19T10:07:18.289Z,120.00
2018-09-19T10:08:18.240Z,120.00
2018-09-19T10:09:18.357Z,116.00
2018-09-19T10:10:18.413Z,116.00
2018-09-19T10:11:18.335Z,112.00
2018-09-19T10:12:18.242Z,112.00
2018-09-19T10:13:18.039Z,108.00
2018-09-19T10:14:18.177Z,108.00
2018-09-19T10:15:18.296Z,104.00
2018-09-19T10:16:18.443Z,104.00
2018-09-19T10:17:18.742Z,104.00
2018-09-19T10:18:18.156Z,100.00
2018-09-19T10:19:18.106Z,100.00
2018-09-19T10:20:18.055Z,96.00
2018-09-19T10:21:18.123Z,92.00
2018-09-19T10:22:17.902Z,92.00
2018-09-19T10:23:18.248Z,92.00
2018-09-19T10:24:18.123Z,92.00
2018-09-19T10:25:18.166Z,88.00
2018-09-19T10:26:18.606Z,88.00
2018-09-19T10:27:18.202Z,88.00
2018-09-19T10:28:18.341Z,84.00
2018-09-19T10:29:17.933Z,84.00
2018-09-19T10:30:17.975Z,84.00
2018-09-19T10:31:18.302Z,84.00
2018-09-19T10:32:18.144Z,84.00
2018-09-19T10:33:18.430Z,84.00
2018-09-19T10:34:18.118Z,84.00
2018-09-19T10:35:18.209Z,84.00
2018-09-19T10:36:18.337Z,84.00
2018-09-19T10:37:17.905Z,80.00
2018-09-19T10:38:18.272Z,80.00
2018-09-19T10:39:18.192Z,80.00
2018-09-19T10:40:17.887Z,80.00
2018-09-19T10:41:17.897Z,80.00
2018-09-19T10:42:17.830Z,80.00
2018-09-19T10:43:18.142Z,80.00
2018-09-19T10:44:17.974Z,80.00
2018-09-19T10:45:18.570Z,80.00
2018-09-19T10:46:17.973Z,80.00
2018-09-19T10:47:18.114Z,80.00
2018-09-19T10:48:18.159Z,80.00
2018-09-19T10:49:18.302Z,76.00
2018-09-19T10:50:18.207Z,76.00
2018-09-19T10:51:18.175Z,80.00
2018-09-19T10:52:18.044Z,80.00
2018-09-19T10:53:17.947Z,76.00
2018-09-19T10:54:17.725Z,76.00
2018-09-19T10:55:18.145Z,76.00
2018-09-19T10:56:18.054Z,76.00
2018-09-19T10:57:18.327Z,76.00
2018-09-19T10:58:17.908Z,76.00
2018-09-19T10:59:17.992Z,72.00
2018-09-19T11:00:17.671Z,76.00
2018-09-19T11:01:17.919Z,76.00
2018-09-19T11:02:17.896Z,76.00
2018-09-19T11:04:17.987Z,72.00
2018-09-19T11:05:17.934Z,72.00
2018-09-19T11:06:17.863Z,72.00
2018-09-19T11:07:17.678Z,72.00
2018-09-19T11:08:17.685Z,76.00
2018-09-19T11:09:17.766Z,72.00
2018-09-19T11:10:18.202Z,72.00
2018-09-19T11:11:18.025Z,76.00
2018-09-19T11:12:18.043Z,76.00
2018-09-19T11:13:18.073Z,76.00
2018-09-19T11:14:17.904Z,72.00
2018-09-19T11:15:17.788Z,72.00
2018-09-19T11:16:17.552Z,72.00
2018-09-19T11:17:17.785Z,72.00
2018-09-19T11:18:17.665Z,72.00
2018-09-19T11:19:17.504Z,72.00
2018-09-19T11:20:18.048Z,72.00
2018-09-19T11:21:17.514Z,72.00
2018-09-19T11:22:17.802Z,72.00
2018-09-19T11:23:17.610Z,76.00
2018-09-19T11:24:18.266Z,76.00
2018-09-19T11:25:18.020Z,76.00
2018-09-19T11:26:17.678Z,76.00
2018-09-19T11:27:17.552Z,76.00
2018-09-19T11:28:17.620Z,76.00
2018-09-19T11:29:17.626Z,76.00
2018-09-19T11:30:17.404Z,76.00
2018-09-19T11:31:17.605Z,76.00
2018-09-19T11:32:17.674Z,76.00
2018-09-19T11:33:17.487Z,76.00
2018-09-19T11:34:17.413Z,76.00
2018-09-19T11:35:17.642Z,76.00
2018-09-19T11:36:18.115Z,80.00
2018-09-19T11:37:17.655Z,80.00
2018-09-19T11:38:17.801Z,80.00
2018-09-19T11:39:17.820Z,80.00
2018-09-19T11:40:17.940Z,80.00
2018-09-19T11:41:17.535Z,80.00
2018-09-19T11:42:18.301Z,80.00
2018-09-19T11:43:17.582Z,80.00
2018-09-19T11:44:17.737Z,76.00
2018-09-19T11:45:17.412Z,80.00
2018-09-19T11:46:17.767Z,80.00
2018-09-19T11:47:17.636Z,80.00
2018-09-19T11:48:17.588Z,84.00
2018-09-19T11:49:17.628Z,80.00
2018-09-19T11:50:17.710Z,80.00
2018-09-19T11:51:17.356Z,80.00
2018-09-19T11:52:17.667Z,80.00
2018-09-19T11:53:17.683Z,80.00
2018-09-19T11:54:17.415Z,80.00
2018-09-19T11:55:17.253Z,80.00
2018-09-19T11:56:17.527Z,80.00
2018-09-19T11:57:17.378Z,80.00
2018-09-19T11:58:17.465Z,80.00
2018-09-19T11:59:17.273Z,80.00
2018-09-19T12:00:17.451Z,76.00
2018-09-19T12:01:17.609Z,76.00
2018-09-19T12:02:17.768Z,76.00
2018-09-19T12:03:17.942Z,76.00
2018-09-19T12:04:17.286Z,76.00
2018-09-19T12:06:19.223Z,76.00
2018-09-19T12:08:18.548Z,76.00
2018-09-19T12:09:17.490Z,76.00
2018-09-19T12:10:17.524Z,52.00
2018-09-19T12:11:17.186Z,76.00
2018-09-19T12:12:18.752Z,72.00
2018-09-19T12:13:17.630Z,72.00
2018-09-19T12:14:17.236Z,72.00
2018-09-19T12:15:17.569Z,72.00
2018-09-19T12:16:17.074Z,72.00
2018-09-19T12:17:17.129Z,72.00
2018-09-19T12:18:17.514Z,72.00
2018-09-19T12:19:17.329Z,64.00
2018-09-19T12:20:17.591Z,64.00
2018-09-19T12:21:17.074Z,60.00
2018-09-19T12:22:17.166Z,64.00
2018-09-19T12:23:17.176Z,60.00
2018-09-19T12:24:17.314Z,60.00
2018-09-19T12:25:17.232Z,60.00
2018-09-19T12:26:17.301Z,60.00
2018-09-19T12:27:17.136Z,60.00
2018-09-19T12:28:17.337Z,56.00
2018-09-19T12:29:17.261Z,56.00
2018-09-19T12:30:17.272Z,56.00
2018-09-19T12:31:17.351Z,56.00
2018-09-19T12:32:17.120Z,60.00
2018-09-19T12:33:17.676Z,60.00
2018-09-19T12:34:18.190Z,56.00
2018-09-19T12:35:17.304Z,60.00
2018-09-19T12:36:16.963Z,56.00
2018-09-19T12:37:17.015Z,60.00
2018-09-19T12:38:16.829Z,56.00
2018-09-19T12:39:17.085Z,56.00
2018-09-19T12:40:17.048Z,56.00
2018-09-19T12:41:17.076Z,56.00
2018-09-19T12:42:17.011Z,56.00
2018-09-19T12:43:16.918Z,56.00
2018-09-19T12:44:17.330Z,56.00
2018-09-19T12:45:16.936Z,52.00
2018-09-19T12:46:16.871Z,56.00
2018-09-19T12:47:16.966Z,52.00
2018-09-19T12:48:17.050Z,52.00
2018-09-19T12:49:17.309Z,52.00
2018-09-19T12:50:17.290Z,52.00
2018-09-19T12:51:17.823Z,52.00
2018-09-19T12:52:17.096Z,52.00
2018-09-19T12:53:17.287Z,52.00
2018-09-19T12:54:17.188Z,52.00
2018-09-19T12:55:17.891Z,52.00
2018-09-19T12:56:17.330Z,52.00
2018-09-19T12:57:16.928Z,52.00
2018-09-19T12:58:16.958Z,52.00
2018-09-19T12:59:17.029Z,52.00
2018-09-19T13:00:17.068Z,52.00
2018-09-19T13:01:16.975Z,52.00
2018-09-19T13:02:16.868Z,52.00
2018-09-19T13:03:16.920Z,52.00
2018-09-19T13:04:17.058Z,52.00
2018-09-19T13:05:16.892Z,56.00